Heerhugowaard, Netherlands
Current Conditions -  °F | °C
As of 7:55 PM on Thursday 30 Oct 2014 (Local Time) from EHKD Reporting Station
Haze Haze  
Wind Chill: 55°   Ceiling: Unl
Heat Index: 55°   Visibility: 1.4mi
Dew Point: 55°   Wind: 7mph
Humidity: 100%   Direction: 190°S
Pressure: 30.12"   Gusts: NA
Location:  52.67°N, 4.85°E
Report Text: EHKD 301855Z AUTO 19006KT 2300 R21/2000 BR SCT100 13/13 Q1020 YLO 17006KT 3000 BR SCT100
Loading
Personal Weather Stations






























Interactive Weather Map
Tropical Storm Tracking
New forecast layout! Learn more

10-Day Weather Forecast

Advertisements
Track Severe Weather on mobile